This is the latest recevied weather packets stored in our database for station/object SQ5LTL-2. If no packets are shown the sender has not sent any weather packets the latest 10 day(s).
| Time | Temp. | Humidity | Pressure | Rain* | Wind** | Luminosity | Snow |
|---|---|---|---|---|---|---|---|
| 1777824629 | 24.44° C | 29% | 1015.9 hPa | 0 mm | - | 44 W/m² | - |
| 1777821633 | 25.56° C | 27% | 1016.3 hPa | 0 mm | - | 170 W/m² | - |
| 1777821032 | 25.56° C | 27% | 1016.3 hPa | 0 mm | - | 207 W/m² | - |
| 1777818017 | 25° C | 28% | 1016.9 hPa | 0 mm | - | 333 W/m² | - |
| 1777817434 | 25.56° C | 27% | 1017.1 hPa | 0 mm | - | 357 W/m² | - |
| 1777817133 | 25.56° C | 27% | 1017.1 hPa | 0 mm | - | 363 W/m² | - |
| 1777816832 | 25.56° C | 27% | 1017.2 hPa | 0 mm | - | 367 W/m² | - |
| 1777813233 | 25.56° C | 28% | 1017.9 hPa | 0 mm | - | 441 W/m² | - |
| 1777811124 | 25° C | 30% | 1018.1 hPa | 0 mm | - | 503 W/m² | - |
| 1777810821 | 25° C | 28% | 1018.2 hPa | 0 mm | - | 509 W/m² | - |
| 1777809033 | 24.44° C | 29% | 1018.6 hPa | 0 mm | - | 544 W/m² | - |
| 1777807826 | 24.44° C | 27% | 1018.8 hPa | 0 mm | - | 553 W/m² | - |
| 1777806622 | 25° C | 27% | 1019 hPa | 0 mm | - | 556 W/m² | - |
| 1777805716 | 23.89° C | 28% | 1019.1 hPa | 0 mm | - | 565 W/m² | - |
| 1777804531 | 23.89° C | 30% | 1019.3 hPa | 0 mm | - | 585 W/m² | - |
| 1777804229 | 23.89° C | 29% | 1019.4 hPa | 0 mm | - | 591 W/m² | - |
| 1777803929 | 23.89° C | 30% | 1019.6 hPa | 0 mm | - | 599 W/m² | - |
| 1777803626 | 23.89° C | 31% | 1019.5 hPa | 0 mm | - | 607 W/m² | - |
| 1777803022 | 23.33° C | 31% | 1019.7 hPa | 0 mm | - | 611 W/m² | - |
| 1777802721 | 23.33° C | 32% | 1019.7 hPa | 0 mm | - | 609 W/m² | - |
| 1777802119 | 23.33° C | 32% | 1019.8 hPa | 0 mm | - | 605 W/m² | - |
| 1777801818 | 23.33° C | 32% | 1019.8 hPa | 0 mm | - | 600 W/m² | - |
| 1777801234 | 23.33° C | 33% | 1019.9 hPa | 0 mm | - | 588 W/m² | - |
| 1777800933 | 23.33° C | 33% | 1020 hPa | 0 mm | - | 583 W/m² | - |
| 1777800631 | 22.78° C | 34% | 1019.9 hPa | 0 mm | - | 580 W/m² | - |
* Rain latest hour (hover to see other rain measurements)
** Current wind speed in m/s (hover to see current wind gust speed)